Terminal Aerodrome Forecast
Issued by NWS Twin Cities, MN

Home | Current Version | Previous Version | Text Only | Print | Product List | Glossary Off
Versions: 1 2 3 4 5 6 7 8 9 10 11 12 13 14 15 16 17 18 19 20 21

000
FTUS43 KMPX 152030 AAA
TAFSTC
TAF AMD
KSTC 152030Z 1521/1618 15003KT P6SM SCT015 OVC035
     FM152300 14005KT 3SM -SN OVC015
     FM160700 09005KT P6SM OVC008=

USA.gov is the U.S. government's official web portal to all federal, state and local government web resources and services.